Latest Coastal Weather Observations for Moorabbin Airport

IDV60701

Issued at 1:22 am EDT Tuesday 19 October 2021 (issued every 10 minutes, with the page automatically refreshed every 10 minutes)

About coastal observations | Map of coastal stations | Coastal observations for VIC | Marine services | Other Formats
Station Details ID: 086077 Name: MOORABBIN AIRPORT Lat: -37.98 Lon: 145.10 Height: 12.1 m
Data from the previous 72 hours. | See also: Recent months at Moorabbin Airport
Date/Time
EDT
Wind Sea
Height
m
Swell Vis
km
Cloud Weather Temp
°C
Press
MSL
hPa
Rain since
9am
mm
Dir  Spd
kts
Gust
kts
Height
m
Period
s
Dir
19/01:00am SSW 7 11 - - - - 10 Partly cloudy - 11.9 1018.9 1.4
19/12:30am SW 7 11 - - - - 10 Partly cloudy - 11.8 1018.8 1.4
19/12:00am SSW 7 10 - - - - 10 Partly cloudy - 11.7 1018.7 1.4
 
Date/Time
EDT
Wind Sea
Height
m
Swell Vis
km
Cloud Weather Temp
°C
Press
MSL
hPa
Rain since
9am
mm
Dir  Spd
kts
Gust
kts
Height
m
Period
s
Dir
18/11:30pm SSW 6 9 - - - - 10 Partly cloudy - 11.7 1018.6 1.4
18/11:00pm SSW 6 12 - - - - 10 Partly cloudy - 11.7 1018.5 1.4
18/10:30pm SSW 8 12 - - - - 10 Partly cloudy - 11.8 1018.3 1.4
18/10:00pm SSW 9 13 - - - - 10 Partly cloudy - 11.8 1018.1 1.4
18/09:30pm SW 8 13 - - - - 10 Partly cloudy - 11.8 1017.9 1.2
18/09:25pm SW 8 15 - - - - 10 Partly cloudy - 11.5 1017.8 1.2
18/09:04pm SW 8 18 - - - - 5 Partly cloudy - 11.9 1017.6 0.2
18/09:00pm SW 7 9 - - - - 7 Cloudy - 12.4 1017.4 0.0
18/08:30pm SW 5 9 - - - - 9 Partly cloudy - 12.1 1017.0 0.0
18/08:00pm SSW 10 14 - - - - 10 Partly cloudy - 12.5 1016.6 0.0
18/07:30pm SSW 9 14 - - - - 10 Partly cloudy - 12.7 1016.2 0.0
18/07:00pm SSW 9 15 - - - - 10 Partly cloudy - 13.4 1015.8 0.0
18/06:30pm SSW 10 15 - - - - 10 Partly cloudy - 13.1 1015.7 0.0
18/06:00pm SSW 11 15 - - - - 10 Partly cloudy - 13.5 1015.3 0.0
18/05:30pm SSW 9 14 - - - - 10 Partly cloudy - 13.6 1015.0 0.0
18/05:00pm SSW 11 15 - - - - 10 Partly cloudy - 13.8 1014.6 0.0
18/04:30pm SSW 11 16 - - - - 10 Cloudy - 14.1 1014.2 0.0
18/04:00pm SSW 11 19 - - - - 10 Partly cloudy - 14.8 1014.0 0.0
18/03:30pm SW 7 8 - - - - 10 Cloudy - 15.4 1013.6 0.0
18/03:00pm WSW 8 10 - - - - 10 Cloudy - 15.6 1013.6 0.0
18/02:30pm SW 8 11 - - - - 10 Partly cloudy - 15.8 1013.5 0.0
18/02:00pm SW 9 12 - - - - 10 Cloudy - 15.5 1013.3 0.0
18/01:30pm WSW 7 10 - - - - 10 Cloudy - 15.3 1013.4 0.0
18/01:00pm WSW 7 9 - - - - 10 Cloudy - 14.9 1013.5 0.0
18/12:30pm W 6 8 - - - - 10 Cloudy - 15.1 1013.3 0.0
18/12:00pm SW 7 10 - - - - 10 Mostly cloudy - 14.9 1013.4 0.0
18/11:30am WSW 8 11 - - - - 10 - - 15.0 1013.7 0.0
18/11:00am WSW 9 11 - - - - 10 - - 14.4 1013.8 0.0
18/10:30am WSW 7 9 - - - - 10 - - 14.7 1013.4 0.0
18/10:00am WSW 8 12 - - - - 10 Partly cloudy - 14.6 1013.5 0.0
18/09:30am WSW 7 10 - - - - 10 Partly cloudy - 14.6 1013.4 0.0
18/09:00am WNW 8 13 - - - - 10 Cloudy - 14.7 1013.2 0.0
18/08:30am NW 8 10 - - - - 10 Cloudy - 14.2 1013.0 0.0
18/08:00am NW 5 7 - - - - 10 Cloudy - 13.3 1012.8 0.0
18/07:30am WNW 3 4 - - - - 10 Partly cloudy - 11.2 1012.6 0.0
18/07:00am CALM 0 0 - - - - 10 Partly cloudy - 10.3 1012.2 0.0
18/06:30am WNW 3 4 - - - - 10 Partly cloudy - 9.6 1011.9 0.0
18/06:00am WNW 1 4 - - - - 10 Cloudy - 9.3 1011.6 0.0
18/05:30am S 3 4 - - - - 10 - - 9.4 1011.5 0.0
18/05:00am CALM 0 0 - - - - 10 - - 9.0 1011.4 0.0
18/04:30am N 3 4 - - - - 10 - - 9.1 1011.2 0.0
18/04:00am N 4 5 - - - - 10 - - 8.8 1011.3 0.0
18/03:30am CALM 0 0 - - - - 10 Partly cloudy - 8.6 1011.6 0.0
18/03:00am CALM 0 0 - - - - 10 Mostly cloudy - 8.6 1011.9 0.0
18/02:30am CALM 0 0 - - - - 10 - - 8.7 1012.1 0.0
18/02:00am CALM 0 0 - - - - 10 - - 9.5 1012.6 0.0
18/01:30am CALM 0 0 - - - - 10 - - 10.5 1012.9 0.0
18/01:00am CALM 0 0 - - - - 10 Partly cloudy - 10.7 1013.2 0.0
18/12:30am CALM 0 0 - - - - 10 Partly cloudy - 10.9 1013.4 0.0
18/12:00am ENE 4 5 - - - - 10 Mostly cloudy - 10.8 1013.7 0.0
 
Date/Time
EDT
Wind Sea
Height
m
Swell Vis
km
Cloud Weather Temp
°C
Press
MSL
hPa
Rain since
9am
mm
Dir  Spd
kts
Gust
kts
Height
m
Period
s
Dir
17/11:30pm E 7 8 - - - - 10 Partly cloudy - 11.4 1013.6 0.0
17/11:00pm ESE 4 5 - - - - 10 - - 11.0 1013.8 0.0
17/10:30pm E 3 3 - - - - 10 Partly cloudy - 11.6 1013.9 0.0
17/10:00pm SE 3 4 - - - - 10 Partly cloudy - 12.5 1014.1 0.0
17/09:30pm CALM 0 2 - - - - 10 Cloudy - 13.1 1014.1 0.0
17/09:00pm SSE 3 5 - - - - 10 Cloudy - 13.5 1014.0 0.0
17/08:30pm S 5 6 - - - - 10 Cloudy - 13.8 1013.7 0.0
17/08:00pm SSE 5 6 - - - - 10 Cloudy - 13.5 1013.3 0.0
17/07:30pm S 5 7 - - - - 10 Cloudy - 13.8 1013.2 0.0
17/07:00pm SSW 7 8 - - - - 10 Partly cloudy - 14.1 1012.8 0.0
17/06:30pm S 6 8 - - - - 10 Partly cloudy - 15.0 1012.5 0.0
17/06:00pm SW 6 8 - - - - 10 Mostly clear - 15.4 1012.4 0.0
17/05:30pm SSW 6 9 - - - - 10 Partly cloudy - 15.3 1012.6 0.0
17/05:00pm SSW 8 12 - - - - 10 Partly cloudy - 15.2 1012.6 0.0
17/04:30pm SW 8 12 - - - - 10 Partly cloudy - 15.6 1012.7 0.0
17/04:00pm SW 9 11 - - - - 10 Partly cloudy - 15.0 1012.9 0.0
17/03:30pm SW 10 15 - - - - 10 - - 15.4 1013.0 0.0
17/03:00pm SW 10 13 - - - - 10 - - 15.3 1013.2 0.0
17/02:30pm WSW 11 16 - - - - 10 Partly cloudy - 15.5 1013.6 0.0
17/02:00pm W 9 13 - - - - 10 Partly cloudy - 16.0 1013.6 0.0
17/01:30pm W 9 15 - - - - 10 Cloudy - 15.0 1013.9 0.0
17/01:00pm W 7 11 - - - - 10 Cloudy - 14.5 1014.1 0.0
17/12:30pm W 7 11 - - - - 10 Cloudy - 14.4 1014.2 0.0
17/12:00pm NW 7 9 - - - - 10 Cloudy - 14.8 1014.5 0.0
17/11:30am W 6 11 - - - - 10 Cloudy - 14.5 1014.8 0.0
17/11:00am WSW 7 12 - - - - 10 Partly cloudy - 14.2 1014.9 0.0
17/10:30am W 7 11 - - - - 10 Partly cloudy - 13.5 1015.2 0.0
17/10:00am WNW 7 12 - - - - 10 Partly cloudy - 13.1 1015.2 0.0
17/09:30am WNW 9 11 - - - - 10 Cloudy - 12.9 1015.1 0.0
17/09:00am W 7 11 - - - - 10 Cloudy - 12.3 1015.1 0.0
17/08:30am WNW 8 11 - - - - 10 Cloudy - 12.0 1015.0 0.0
17/08:00am WNW 8 11 - - - - 10 Cloudy - 11.9 1014.7 0.0
17/07:30am WNW 7 11 - - - - 10 Cloudy - 11.3 1014.4 0.0
17/07:00am WNW 7 10 - - - - 10 Partly cloudy - 11.2 1014.1 0.0
17/06:30am WNW 7 11 - - - - 10 Cloudy - 11.2 1014.0 0.0
17/06:00am W 7 10 - - - - 10 Cloudy - 11.3 1013.7 0.0
17/05:30am WNW 6 7 - - - - 10 Cloudy - 11.2 1013.3 0.0
17/05:00am NNW 5 7 - - - - 10 Cloudy - 11.0 1013.1 0.0
17/04:30am WNW 6 9 - - - - 10 Cloudy - 11.1 1013.0 0.0
17/04:00am NW 5 7 - - - - 10 Cloudy - 11.0 1013.1 0.0
17/03:30am WNW 6 9 - - - - 10 Cloudy - 11.0 1013.2 0.0
17/03:00am NW 5 7 - - - - 10 Cloudy - 11.1 1013.3 0.0
17/02:30am WNW 7 9 - - - - 10 Cloudy - 11.2 1013.4 0.0
17/02:00am W 7 10 - - - - 10 Cloudy - 11.3 1013.3 0.0
17/01:30am WSW 7 11 - - - - 10 Partly cloudy - 11.6 1013.4 0.0
17/01:00am W 9 12 - - - - 10 Partly cloudy - 11.8 1013.6 0.0
17/12:30am SW 8 13 - - - - 10 Partly cloudy - 11.7 1013.7 0.0
17/12:00am WSW 9 14 - - - - 10 Cloudy - 11.9 1013.8 0.0
 
Date/Time
EDT
Wind Sea
Height
m
Swell Vis
km
Cloud Weather Temp
°C
Press
MSL
hPa
Rain since
9am
mm
Dir  Spd
kts
Gust
kts
Height
m
Period
s
Dir
16/11:30pm SW 10 13 - - - - 10 Partly cloudy - 12.0 1013.7 0.0
16/11:00pm WSW 9 16 - - - - 10 Partly cloudy - 12.2 1013.8 0.0
16/10:30pm SW 11 17 - - - - 10 Partly cloudy - 12.4 1013.8 0.0
16/10:00pm SW 13 18 - - - - 10 Partly cloudy - 12.4 1013.6 0.0
16/09:30pm SW 12 20 - - - - 10 Partly cloudy - 12.3 1013.6 0.0
16/09:00pm SW 13 19 - - - - 10 Cloudy - 12.4 1013.2 0.0
16/08:30pm SW 12 19 - - - - 10 Partly cloudy - 12.5 1012.7 0.0
16/08:00pm SW 11 17 - - - - 10 Partly cloudy - 12.4 1012.5 0.0
16/07:30pm SW 12 18 - - - - 10 Partly cloudy - 12.6 1012.1 0.0
16/07:00pm SW 13 21 - - - - 10 Partly cloudy - 12.6 1011.8 0.0
16/06:30pm SW 13 19 - - - - 10 Partly cloudy - 13.0 1011.5 0.0
16/06:00pm SSW 12 19 - - - - 10 Cloudy - 13.2 1011.0 0.0
16/05:30pm SSW 15 23 - - - - 10 Partly cloudy - 13.3 1010.7 0.0
16/05:00pm SW 14 24 - - - - 10 Partly cloudy - 14.0 1010.5 0.0
16/04:30pm SW 14 22 - - - - 10 Cloudy - 13.6 1010.4 0.0
16/04:00pm SW 15 22 - - - - 10 Partly cloudy - 13.7 1010.3 0.0
16/03:30pm SSW 14 22 - - - - 10 Partly cloudy - 13.5 1010.5 0.0
16/03:00pm SSW 13 20 - - - - 10 Cloudy - 13.9 1010.4 0.0
16/02:30pm SW 16 21 - - - - 10 Partly cloudy - 13.6 1010.5 0.0
16/02:00pm SW 15 24 - - - - 10 Partly cloudy - 14.4 1010.6 0.0
16/01:30pm SW 14 21 - - - - 10 Partly cloudy - 13.5 1010.6 0.0
16/01:07pm SW 15 26 - - - - 10 Partly cloudy - 13.4 1010.4 0.0
16/01:00pm SW 13 21 - - - - 10 Partly cloudy - 13.8 1010.4 0.0
16/12:30pm SW 15 21 - - - - 10 Partly cloudy - 14.1 1010.3 0.0
16/12:00pm SW 16 26 - - - - 10 Cloudy - 13.6 1010.3 0.0
16/11:30am SW 15 21 - - - - 10 Partly cloudy - 13.4 1010.3 0.0
16/11:04am SW 17 27 - - - - 10 Partly cloudy - 13.9 1010.1 0.0
16/11:00am SW 17 25 - - - - 10 Partly cloudy - 13.7 1010.0 0.0
16/10:30am SW 15 24 - - - - 10 Partly cloudy - 13.4 1009.8 0.0
16/10:00am SW 14 21 - - - - 10 Partly cloudy - 13.5 1009.6 0.0
16/09:30am SW 15 24 - - - - 10 Partly cloudy - 13.3 1009.2 0.0
16/09:04am SSW 15 25 - - - - 10 Partly cloudy - 13.2 1008.8 0.0
16/09:00am SW 16 23 - - - - 10 Cloudy - 13.2 1008.8 27.2
16/08:30am SW 15 23 - - - - 10 Partly cloudy - 12.9 1008.3 27.2
16/08:00am SW 16 25 - - - - 10 Partly cloudy - 12.8 1007.8 27.2
16/07:30am SW 18 29 - - - - 10 Partly cloudy - 12.7 1007.0 27.2
16/07:00am SW 17 28 - - - - 10 Partly cloudy - 12.4 1006.4 27.2
16/06:30am SW 15 25 - - - - 10 Partly cloudy - 12.4 1005.7 27.2
16/06:22am SW 16 26 - - - - 9 Partly cloudy - 12.0 1005.6 27.2
16/06:12am SW 15 30 - - - - 5 Partly cloudy - 12.0 1005.6 27.2
16/06:00am SW 13 21 - - - - 5 Cloudy Rain 11.7 1005.2 26.8
16/05:50am SW 17 27 - - - - 4 Partly cloudy - 11.6 1005.2 26.6
16/05:31am SW 15 25 - - - - 10 Partly cloudy - 13.1 1004.7 25.8
16/05:30am SW 16 25 - - - - 10 Partly cloudy - 13.1 1004.7 25.8
16/05:00am SW 18 28 - - - - 9 Partly cloudy - 13.2 1004.5 25.8
16/04:30am SW 16 30 - - - - 10 Partly cloudy - 13.3 1003.9 25.8
16/04:04am SW 17 27 - - - - 10 Partly cloudy - 13.2 1003.5 25.8
16/04:00am SW 17 24 - - - - 10 Partly cloudy - 13.1 1003.4 25.8
16/03:30am SW 18 30 - - - - 8 Partly cloudy - 13.0 1003.0 25.8
16/03:21am SW 19 31 - - - - 10 Partly cloudy - 13.1 1002.8 25.8
16/03:00am SW 20 34 - - - - 9 Cloudy Recent precip. 13.1 1002.6 25.8
16/02:48am SW 20 32 - - - - 10 Partly cloudy - 13.1 1002.4 25.8
16/02:30am SW 20 30 - - - - 3 Partly cloudy - 12.7 1002.1 25.8
16/02:29am SW 20 30 - - - - 3 Partly cloudy - 12.7 1002.0 25.8
16/02:27am SW 21 30 - - - - 5 Partly cloudy - 12.8 1002.1 25.4
16/02:20am SW 22 29 - - - - 8 Partly cloudy - 12.9 1002.1 25.4
16/02:05am SW 21 31 - - - - 4 Partly cloudy - 12.9 1002.1 25.2
16/02:00am SW 19 28 - - - - 4 Partly cloudy - 12.8 1002.0 25.2
16/01:30am SW 19 31 - - - - 5 Partly cloudy - 12.9 1001.8 24.8

Other formats

Comma delimited format used in spreadsheet applications
http://www.bom.gov.au/fwo/IDV60701/IDV60701.94870.axf

JavaScript Object Notation format (JSON) in row-major order
http://www.bom.gov.au/fwo/IDV60701/IDV60701.94870.json

Data quality

Most of these data are generated automatically and are frequently updated. Quality checks on data are not normally performed. It is possible for incorrect values to appear. Refer to information at About Latest Weather Observations and please check the disclaimer before using these data.